sensor_id;sensor_type;location;lat;lon;timestamp;P1;durP1;ratioP1;P2;durP2;ratioP2
3789;SDS011;1910;49.042;9.028;2022-12-04T00:00:40;34.87;;;14.70;;
3789;SDS011;1910;49.042;9.028;2022-12-04T00:03:06;39.73;;;16.50;;
3789;SDS011;1910;49.042;9.028;2022-12-04T00:05:32;33.63;;;14.40;;
3789;SDS011;1910;49.042;9.028;2022-12-04T00:07:58;27.57;;;14.07;;
3789;SDS011;1910;49.042;9.028;2022-12-04T00:10:24;30.05;;;13.65;;
3789;SDS011;1910;49.042;9.028;2022-12-04T00:12:50;32.17;;;12.70;;
3789;SDS011;1910;49.042;9.028;2022-12-04T00:15:16;34.10;;;14.85;;
3789;SDS011;1910;49.042;9.028;2022-12-04T00:17:45;33.20;;;15.27;;
3789;SDS011;1910;49.042;9.028;2022-12-04T00:20:12;39.42;;;16.13;;
3789;SDS011;1910;49.042;9.028;2022-12-04T00:22:37;33.23;;;14.37;;
3789;SDS011;1910;49.042;9.028;2022-12-04T00:25:03;31.77;;;15.00;;
3789;SDS011;1910;49.042;9.028;2022-12-04T00:27:29;32.67;;;16.60;;
3789;SDS011;1910;49.042;9.028;2022-12-04T00:29:54;41.27;;;15.63;;
3789;SDS011;1910;49.042;9.028;2022-12-04T00:32:20;32.13;;;14.87;;
3789;SDS011;1910;49.042;9.028;2022-12-04T00:34:46;28.20;;;12.93;;
3789;SDS011;1910;49.042;9.028;2022-12-04T00:37:12;39.57;;;15.40;;
3789;SDS011;1910;49.042;9.028;2022-12-04T00:39:37;30.90;;;13.53;;
3789;SDS011;1910;49.042;9.028;2022-12-04T00:42:03;26.33;;;13.73;;
3789;SDS011;1910;49.042;9.028;2022-12-04T00:44:29;36.50;;;16.30;;
3789;SDS011;1910;49.042;9.028;2022-12-04T00:46:54;28.90;;;13.20;;
3789;SDS011;1910;49.042;9.028;2022-12-04T00:49:20;29.00;;;14.20;;
3789;SDS011;1910;49.042;9.028;2022-12-04T00:51:45;25.27;;;13.60;;
3789;SDS011;1910;49.042;9.028;2022-12-04T00:54:11;30.97;;;13.37;;
3789;SDS011;1910;49.042;9.028;2022-12-04T00:56:36;30.50;;;13.70;;
3789;SDS011;1910;49.042;9.028;2022-12-04T00:59:03;27.73;;;15.75;;
3789;SDS011;1910;49.042;9.028;2022-12-04T01:01:29;30.57;;;13.03;;
3789;SDS011;1910;49.042;9.028;2022-12-04T01:03:54;29.07;;;14.27;;
3789;SDS011;1910;49.042;9.028;2022-12-04T01:06:22;28.60;;;13.30;;
3789;SDS011;1910;49.042;9.028;2022-12-04T01:08:48;28.17;;;12.77;;
3789;SDS011;1910;49.042;9.028;2022-12-04T01:11:15;29.98;;;14.25;;
3789;SDS011;1910;49.042;9.028;2022-12-04T01:13:41;25.13;;;12.20;;
3789;SDS011;1910;49.042;9.028;2022-12-04T01:16:07;29.63;;;14.40;;
3789;SDS011;1910;49.042;9.028;2022-12-04T01:18:33;38.47;;;15.60;;
3789;SDS011;1910;49.042;9.028;2022-12-04T01:20:59;27.33;;;13.17;;
3789;SDS011;1910;49.042;9.028;2022-12-04T01:23:25;24.40;;;12.70;;
3789;SDS011;1910;49.042;9.028;2022-12-04T01:25:51;40.37;;;15.90;;
3789;SDS011;1910;49.042;9.028;2022-12-04T01:28:22;27.23;;;12.70;;
3789;SDS011;1910;49.042;9.028;2022-12-04T01:33:28;30.52;;;14.00;;
3789;SDS011;1910;49.042;9.028;2022-12-04T01:35:55;35.53;;;14.77;;
3789;SDS011;1910;49.042;9.028;2022-12-04T01:38:22;25.95;;;12.55;;
3789;SDS011;1910;49.042;9.028;2022-12-04T01:40:48;26.63;;;12.70;;
3789;SDS011;1910;49.042;9.028;2022-12-04T01:43:14;29.80;;;14.10;;
3789;SDS011;1910;49.042;9.028;2022-12-04T01:45:42;32.65;;;13.75;;
3789;SDS011;1910;49.042;9.028;2022-12-04T01:50:45;27.52;;;13.90;;
3789;SDS011;1910;49.042;9.028;2022-12-04T01:53:13;27.38;;;14.55;;
3789;SDS011;1910;49.042;9.028;2022-12-04T01:55:39;25.37;;;12.30;;
3789;SDS011;1910;49.042;9.028;2022-12-04T01:58:05;35.70;;;14.07;;
3789;SDS011;1910;49.042;9.028;2022-12-04T02:00:33;33.33;;;14.40;;
3789;SDS011;1910;49.042;9.028;2022-12-04T02:02:59;34.78;;;14.05;;
3789;SDS011;1910;49.042;9.028;2022-12-04T02:05:25;29.88;;;15.00;;
3789;SDS011;1910;49.042;9.028;2022-12-04T02:07:51;30.20;;;13.10;;
3789;SDS011;1910;49.042;9.028;2022-12-04T02:10:22;31.52;;;14.65;;
3789;SDS011;1910;49.042;9.028;2022-12-04T02:15:29;28.20;;;15.30;;
3789;SDS011;1910;49.042;9.028;2022-12-04T02:23:02;33.97;;;14.20;;
3789;SDS011;1910;49.042;9.028;2022-12-04T02:31:20;38.80;;;14.98;;
3789;SDS011;1910;49.042;9.028;2022-12-04T02:34:13;22.92;;;11.60;;
3789;SDS011;1910;49.042;9.028;2022-12-04T02:36:42;25.83;;;12.13;;
3789;SDS011;1910;49.042;9.028;2022-12-04T02:39:22;29.05;;;12.65;;
3789;SDS011;1910;49.042;9.028;2022-12-04T02:41:55;30.20;;;12.57;;
3789;SDS011;1910;49.042;9.028;2022-12-04T02:44:27;30.77;;;14.02;;
3789;SDS011;1910;49.042;9.028;2022-12-04T02:47:02;25.95;;;12.52;;
3789;SDS011;1910;49.042;9.028;2022-12-04T02:49:37;26.90;;;12.85;;
3789;SDS011;1910;49.042;9.028;2022-12-04T02:52:16;25.30;;;13.77;;
3789;SDS011;1910;49.042;9.028;2022-12-04T02:54:48;25.17;;;13.20;;
3789;SDS011;1910;49.042;9.028;2022-12-04T02:57:20;31.95;;;13.25;;
3789;SDS011;1910;49.042;9.028;2022-12-04T02:59:53;25.65;;;13.02;;
3789;SDS011;1910;49.042;9.028;2022-12-04T03:04:59;25.10;;;13.25;;
3789;SDS011;1910;49.042;9.028;2022-12-04T03:07:36;24.63;;;13.65;;
3789;SDS011;1910;49.042;9.028;2022-12-04T03:10:16;28.33;;;12.88;;
3789;SDS011;1910;49.042;9.028;2022-12-04T03:12:48;36.63;;;16.52;;
3789;SDS011;1910;49.042;9.028;2022-12-04T03:15:28;34.40;;;15.80;;
3789;SDS011;1910;49.042;9.028;2022-12-04T03:20:44;25.77;;;15.48;;
3789;SDS011;1910;49.042;9.028;2022-12-04T03:23:23;26.23;;;11.38;;
3789;SDS011;1910;49.042;9.028;2022-12-04T03:26:02;30.83;;;12.88;;
3789;SDS011;1910;49.042;9.028;2022-12-04T03:31:08;27.27;;;12.70;;
3789;SDS011;1910;49.042;9.028;2022-12-04T03:33:37;27.17;;;13.85;;
3789;SDS011;1910;49.042;9.028;2022-12-04T03:36:15;29.95;;;12.10;;
3789;SDS011;1910;49.042;9.028;2022-12-04T03:38:57;22.40;;;11.45;;
3789;SDS011;1910;49.042;9.028;2022-12-04T03:41:42;21.67;;;11.07;;
3789;SDS011;1910;49.042;9.028;2022-12-04T03:44:36;23.33;;;11.77;;
3789;SDS011;1910;49.042;9.028;2022-12-04T03:47:17;30.58;;;12.38;;
3789;SDS011;1910;49.042;9.028;2022-12-04T03:49:59;29.52;;;12.05;;
3789;SDS011;1910;49.042;9.028;2022-12-04T03:52:49;24.50;;;12.15;;
3789;SDS011;1910;49.042;9.028;2022-12-04T03:55:28;26.10;;;12.32;;
3789;SDS011;1910;49.042;9.028;2022-12-04T03:58:02;27.63;;;13.65;;
3789;SDS011;1910;49.042;9.028;2022-12-04T04:00:33;23.88;;;12.18;;
3789;SDS011;1910;49.042;9.028;2022-12-04T04:03:19;29.27;;;12.35;;
3789;SDS011;1910;49.042;9.028;2022-12-04T04:05:50;40.45;;;23.23;;
3789;SDS011;1910;49.042;9.028;2022-12-04T04:08:20;25.45;;;11.85;;
3789;SDS011;1910;49.042;9.028;2022-12-04T04:11:01;35.95;;;18.45;;
3789;SDS011;1910;49.042;9.028;2022-12-04T04:14:31;25.13;;;10.57;;
3789;SDS011;1910;49.042;9.028;2022-12-04T04:16:44;26.00;;;11.95;;
3789;SDS011;1910;49.042;9.028;2022-12-04T04:19:33;32.00;;;13.50;;
3789;SDS011;1910;49.042;9.028;2022-12-04T04:22:21;33.63;;;13.38;;
3789;SDS011;1910;49.042;9.028;2022-12-04T04:25:09;26.20;;;12.70;;
3789;SDS011;1910;49.042;9.028;2022-12-04T04:27:37;27.27;;;12.63;;
3789;SDS011;1910;49.042;9.028;2022-12-04T04:30:03;28.97;;;13.70;;
3789;SDS011;1910;49.042;9.028;2022-12-04T04:35:20;24.15;;;11.63;;
3789;SDS011;1910;49.042;9.028;2022-12-04T04:37:56;22.48;;;11.18;;
3789;SDS011;1910;49.042;9.028;2022-12-04T04:46:10;28.92;;;12.73;;
3789;SDS011;1910;49.042;9.028;2022-12-04T04:48:46;28.20;;;12.90;;
3789;SDS011;1910;49.042;9.028;2022-12-04T04:51:15;26.05;;;11.50;;
3789;SDS011;1910;49.042;9.028;2022-12-04T04:53:42;22.40;;;9.68;;
3789;SDS011;1910;49.042;9.028;2022-12-04T04:56:12;32.55;;;13.45;;
3789;SDS011;1910;49.042;9.028;2022-12-04T04:58:38;26.08;;;11.52;;
3789;SDS011;1910;49.042;9.028;2022-12-04T05:01:10;23.35;;;10.40;;
3789;SDS011;1910;49.042;9.028;2022-12-04T05:03:38;29.55;;;14.00;;
3789;SDS011;1910;49.042;9.028;2022-12-04T05:06:07;25.58;;;12.90;;
3789;SDS011;1910;49.042;9.028;2022-12-04T05:08:33;26.75;;;12.40;;
3789;SDS011;1910;49.042;9.028;2022-12-04T05:10:59;27.92;;;11.65;;
3789;SDS011;1910;49.042;9.028;2022-12-04T05:13:25;34.00;;;12.90;;
3789;SDS011;1910;49.042;9.028;2022-12-04T05:15:59;30.08;;;14.57;;
3789;SDS011;1910;49.042;9.028;2022-12-04T05:18:26;23.40;;;12.30;;
3789;SDS011;1910;49.042;9.028;2022-12-04T05:20:52;32.20;;;13.70;;
3789;SDS011;1910;49.042;9.028;2022-12-04T05:23:18;26.27;;;11.53;;
3789;SDS011;1910;49.042;9.028;2022-12-04T05:25:44;27.20;;;12.83;;
3789;SDS011;1910;49.042;9.028;2022-12-04T05:28:10;49.20;;;22.48;;
3789;SDS011;1910;49.042;9.028;2022-12-04T05:30:36;49.20;;;21.10;;
3789;SDS011;1910;49.042;9.028;2022-12-04T05:33:02;28.20;;;13.80;;
3789;SDS011;1910;49.042;9.028;2022-12-04T05:35:28;27.60;;;14.90;;
3789;SDS011;1910;49.042;9.028;2022-12-04T05:37:54;27.80;;;11.90;;
3789;SDS011;1910;49.042;9.028;2022-12-04T05:40:19;27.87;;;12.67;;
3789;SDS011;1910;49.042;9.028;2022-12-04T05:42:45;30.53;;;12.63;;
3789;SDS011;1910;49.042;9.028;2022-12-04T05:45:11;32.87;;;13.77;;
3789;SDS011;1910;49.042;9.028;2022-12-04T05:47:40;29.13;;;13.20;;
3789;SDS011;1910;49.042;9.028;2022-12-04T05:50:08;25.98;;;11.32;;
3789;SDS011;1910;49.042;9.028;2022-12-04T05:52:34;28.38;;;13.50;;
3789;SDS011;1910;49.042;9.028;2022-12-04T05:55:01;29.23;;;12.50;;
3789;SDS011;1910;49.042;9.028;2022-12-04T05:57:27;30.48;;;12.25;;
3789;SDS011;1910;49.042;9.028;2022-12-04T05:59:52;25.33;;;12.87;;
3789;SDS011;1910;49.042;9.028;2022-12-04T06:02:19;26.50;;;11.97;;
3789;SDS011;1910;49.042;9.028;2022-12-04T06:07:13;29.25;;;13.48;;
3789;SDS011;1910;49.042;9.028;2022-12-04T06:09:39;28.60;;;12.63;;
3789;SDS011;1910;49.042;9.028;2022-12-04T06:12:04;23.73;;;11.37;;
3789;SDS011;1910;49.042;9.028;2022-12-04T06:14:30;23.67;;;12.40;;
3789;SDS011;1910;49.042;9.028;2022-12-04T06:16:56;23.77;;;11.10;;
3789;SDS011;1910;49.042;9.028;2022-12-04T06:19:21;26.87;;;12.67;;
3789;SDS011;1910;49.042;9.028;2022-12-04T06:21:49;29.23;;;11.68;;
3789;SDS011;1910;49.042;9.028;2022-12-04T06:24:18;29.00;;;11.48;;
3789;SDS011;1910;49.042;9.028;2022-12-04T06:26:47;24.17;;;9.60;;
3789;SDS011;1910;49.042;9.028;2022-12-04T06:29:13;20.27;;;9.40;;
3789;SDS011;1910;49.042;9.028;2022-12-04T06:31:39;25.88;;;11.50;;
3789;SDS011;1910;49.042;9.028;2022-12-04T06:34:06;27.88;;;10.80;;
3789;SDS011;1910;49.042;9.028;2022-12-04T06:36:33;26.77;;;10.68;;
3789;SDS011;1910;49.042;9.028;2022-12-04T06:38:58;23.20;;;10.65;;
3789;SDS011;1910;49.042;9.028;2022-12-04T06:41:25;26.83;;;11.73;;
3789;SDS011;1910;49.042;9.028;2022-12-04T06:43:51;28.77;;;12.23;;
3789;SDS011;1910;49.042;9.028;2022-12-04T06:46:18;30.50;;;12.90;;
3789;SDS011;1910;49.042;9.028;2022-12-04T06:48:45;27.95;;;11.85;;
3789;SDS011;1910;49.042;9.028;2022-12-04T06:51:18;26.83;;;12.03;;
3789;SDS011;1910;49.042;9.028;2022-12-04T06:53:46;23.00;;;9.93;;
3789;SDS011;1910;49.042;9.028;2022-12-04T06:56:13;23.17;;;11.30;;
3789;SDS011;1910;49.042;9.028;2022-12-04T06:58:43;28.50;;;12.55;;
3789;SDS011;1910;49.042;9.028;2022-12-04T07:01:10;30.75;;;14.38;;
3789;SDS011;1910;49.042;9.028;2022-12-04T07:03:37;33.20;;;14.88;;
3789;SDS011;1910;49.042;9.028;2022-12-04T07:06:17;33.97;;;18.93;;
3789;SDS011;1910;49.042;9.028;2022-12-04T07:08:48;31.42;;;13.18;;
3789;SDS011;1910;49.042;9.028;2022-12-04T07:11:16;26.08;;;14.88;;
3789;SDS011;1910;49.042;9.028;2022-12-04T07:13:43;26.27;;;11.32;;
3789;SDS011;1910;49.042;9.028;2022-12-04T07:16:10;22.77;;;10.50;;
3789;SDS011;1910;49.042;9.028;2022-12-04T07:18:37;31.05;;;12.00;;
3789;SDS011;1910;49.042;9.028;2022-12-04T07:21:04;32.13;;;11.87;;
3789;SDS011;1910;49.042;9.028;2022-12-04T07:23:31;27.48;;;13.68;;
3789;SDS011;1910;49.042;9.028;2022-12-04T07:25:57;27.17;;;12.57;;
3789;SDS011;1910;49.042;9.028;2022-12-04T07:28:22;29.13;;;13.43;;
3789;SDS011;1910;49.042;9.028;2022-12-04T07:30:48;29.67;;;15.10;;
3789;SDS011;1910;49.042;9.028;2022-12-04T07:33:14;21.93;;;10.90;;
3789;SDS011;1910;49.042;9.028;2022-12-04T07:35:39;32.27;;;13.13;;
3789;SDS011;1910;49.042;9.028;2022-12-04T07:38:05;26.93;;;13.20;;
3789;SDS011;1910;49.042;9.028;2022-12-04T07:40:30;28.50;;;11.37;;
3789;SDS011;1910;49.042;9.028;2022-12-04T07:42:56;24.43;;;11.70;;
3789;SDS011;1910;49.042;9.028;2022-12-04T07:45:22;22.50;;;11.83;;
3789;SDS011;1910;49.042;9.028;2022-12-04T07:47:48;28.80;;;13.50;;
3789;SDS011;1910;49.042;9.028;2022-12-04T07:50:14;24.37;;;12.53;;
3789;SDS011;1910;49.042;9.028;2022-12-04T07:52:40;35.57;;;14.83;;
3789;SDS011;1910;49.042;9.028;2022-12-04T07:55:06;26.70;;;12.20;;
3789;SDS011;1910;49.042;9.028;2022-12-04T07:57:33;28.80;;;13.07;;
3789;SDS011;1910;49.042;9.028;2022-12-04T07:59:58;28.07;;;13.97;;
3789;SDS011;1910;49.042;9.028;2022-12-04T08:02:24;33.33;;;16.80;;
3789;SDS011;1910;49.042;9.028;2022-12-04T08:04:50;29.73;;;13.38;;
3789;SDS011;1910;49.042;9.028;2022-12-04T08:07:16;51.33;;;21.83;;
3789;SDS011;1910;49.042;9.028;2022-12-04T08:09:42;24.20;;;11.77;;
3789;SDS011;1910;49.042;9.028;2022-12-04T08:12:07;26.07;;;11.67;;
3789;SDS011;1910;49.042;9.028;2022-12-04T08:14:33;25.40;;;14.10;;
3789;SDS011;1910;49.042;9.028;2022-12-04T08:16:59;29.63;;;12.73;;
3789;SDS011;1910;49.042;9.028;2022-12-04T08:19:25;22.33;;;10.83;;
3789;SDS011;1910;49.042;9.028;2022-12-04T08:21:52;31.73;;;11.30;;
3789;SDS011;1910;49.042;9.028;2022-12-04T08:24:18;22.77;;;10.98;;
3789;SDS011;1910;49.042;9.028;2022-12-04T08:26:44;29.53;;;12.63;;
3789;SDS011;1910;49.042;9.028;2022-12-04T08:29:09;29.23;;;11.87;;
3789;SDS011;1910;49.042;9.028;2022-12-04T08:31:35;23.17;;;12.13;;
3789;SDS011;1910;49.042;9.028;2022-12-04T08:34:02;24.53;;;11.77;;
3789;SDS011;1910;49.042;9.028;2022-12-04T08:36:29;26.38;;;11.95;;
3789;SDS011;1910;49.042;9.028;2022-12-04T08:38:55;23.50;;;11.93;;
3789;SDS011;1910;49.042;9.028;2022-12-04T08:41:22;30.85;;;12.68;;
3789;SDS011;1910;49.042;9.028;2022-12-04T08:43:49;39.10;;;15.52;;
3789;SDS011;1910;49.042;9.028;2022-12-04T08:46:16;28.08;;;12.38;;
3789;SDS011;1910;49.042;9.028;2022-12-04T08:48:42;35.85;;;13.88;;
3789;SDS011;1910;49.042;9.028;2022-12-04T08:51:16;24.30;;;10.55;;
3789;SDS011;1910;49.042;9.028;2022-12-04T08:53:43;23.38;;;11.90;;
3789;SDS011;1910;49.042;9.028;2022-12-04T08:56:09;22.23;;;11.07;;
3789;SDS011;1910;49.042;9.028;2022-12-04T08:58:35;25.40;;;12.00;;
3789;SDS011;1910;49.042;9.028;2022-12-04T09:01:04;21.17;;;11.10;;
3789;SDS011;1910;49.042;9.028;2022-12-04T09:03:34;25.27;;;12.45;;
3789;SDS011;1910;49.042;9.028;2022-12-04T09:06:00;22.60;;;10.23;;
3789;SDS011;1910;49.042;9.028;2022-12-04T09:08:26;20.52;;;10.95;;
3789;SDS011;1910;49.042;9.028;2022-12-04T09:10:52;26.00;;;12.43;;
3789;SDS011;1910;49.042;9.028;2022-12-04T09:13:18;39.73;;;18.57;;
3789;SDS011;1910;49.042;9.028;2022-12-04T09:15:43;28.60;;;13.03;;
3789;SDS011;1910;49.042;9.028;2022-12-04T09:18:09;21.90;;;10.93;;
3789;SDS011;1910;49.042;9.028;2022-12-04T09:20:35;22.97;;;11.33;;
3789;SDS011;1910;49.042;9.028;2022-12-04T09:23:01;22.42;;;12.02;;
3789;SDS011;1910;49.042;9.028;2022-12-04T09:25:28;27.00;;;11.45;;
3789;SDS011;1910;49.042;9.028;2022-12-04T09:27:55;21.52;;;12.10;;
3789;SDS011;1910;49.042;9.028;2022-12-04T09:30:20;27.33;;;11.97;;
3789;SDS011;1910;49.042;9.028;2022-12-04T09:32:46;25.73;;;11.13;;
3789;SDS011;1910;49.042;9.028;2022-12-04T09:35:12;21.23;;;10.67;;
3789;SDS011;1910;49.042;9.028;2022-12-04T09:37:37;27.00;;;10.73;;
3789;SDS011;1910;49.042;9.028;2022-12-04T09:42:44;22.98;;;10.25;;
3789;SDS011;1910;49.042;9.028;2022-12-04T09:45:40;29.42;;;11.90;;
3789;SDS011;1910;49.042;9.028;2022-12-04T09:48:10;19.63;;;9.80;;
3789;SDS011;1910;49.042;9.028;2022-12-04T09:50:40;21.35;;;10.38;;
3789;SDS011;1910;49.042;9.028;2022-12-04T09:53:12;23.15;;;11.18;;
3789;SDS011;1910;49.042;9.028;2022-12-04T09:55:54;29.23;;;11.65;;
3789;SDS011;1910;49.042;9.028;2022-12-04T09:58:21;25.75;;;11.65;;
3789;SDS011;1910;49.042;9.028;2022-12-04T10:00:51;28.65;;;12.70;;
3789;SDS011;1910;49.042;9.028;2022-12-04T10:03:20;32.38;;;15.82;;
3789;SDS011;1910;49.042;9.028;2022-12-04T10:08:41;32.83;;;17.80;;
3789;SDS011;1910;49.042;9.028;2022-12-04T10:19:28;27.17;;;11.93;;
3789;SDS011;1910;49.042;9.028;2022-12-04T10:23:03;20.20;;;10.52;;
3789;SDS011;1910;49.042;9.028;2022-12-04T10:25:15;30.08;;;11.88;;
3789;SDS011;1910;49.042;9.028;2022-12-04T10:27:48;31.73;;;13.93;;
3789;SDS011;1910;49.042;9.028;2022-12-04T10:30:18;22.30;;;10.30;;
3789;SDS011;1910;49.042;9.028;2022-12-04T10:32:45;21.30;;;10.95;;
3789;SDS011;1910;49.042;9.028;2022-12-04T10:38:09;26.65;;;9.90;;
3789;SDS011;1910;49.042;9.028;2022-12-04T10:40:55;27.13;;;11.73;;
3789;SDS011;1910;49.042;9.028;2022-12-04T10:43:35;25.15;;;12.30;;
3789;SDS011;1910;49.042;9.028;2022-12-04T10:46:11;30.08;;;14.55;;
3789;SDS011;1910;49.042;9.028;2022-12-04T10:48:40;28.67;;;11.65;;
3789;SDS011;1910;49.042;9.028;2022-12-04T10:51:17;27.73;;;11.90;;
3789;SDS011;1910;49.042;9.028;2022-12-04T10:53:45;26.40;;;12.43;;
3789;SDS011;1910;49.042;9.028;2022-12-04T11:01:30;26.15;;;11.30;;
3789;SDS011;1910;49.042;9.028;2022-12-04T11:07:01;21.48;;;12.05;;
3789;SDS011;1910;49.042;9.028;2022-12-04T11:09:32;32.20;;;13.32;;
3789;SDS011;1910;49.042;9.028;2022-12-04T11:12:06;24.50;;;11.25;;
3789;SDS011;1910;49.042;9.028;2022-12-04T11:14:33;20.65;;;10.75;;
3789;SDS011;1910;49.042;9.028;2022-12-04T11:17:00;23.43;;;12.67;;
3789;SDS011;1910;49.042;9.028;2022-12-04T11:19:31;47.50;;;22.85;;
3789;SDS011;1910;49.042;9.028;2022-12-04T11:24:38;28.17;;;14.80;;
3789;SDS011;1910;49.042;9.028;2022-12-04T11:27:06;22.20;;;10.30;;
3789;SDS011;1910;49.042;9.028;2022-12-04T11:29:41;29.73;;;14.10;;
3789;SDS011;1910;49.042;9.028;2022-12-04T11:32:16;23.48;;;12.20;;
3789;SDS011;1910;49.042;9.028;2022-12-04T11:34:47;26.55;;;10.95;;
3789;SDS011;1910;49.042;9.028;2022-12-04T11:37:24;23.20;;;11.00;;
3789;SDS011;1910;49.042;9.028;2022-12-04T11:39:51;26.27;;;12.27;;
3789;SDS011;1910;49.042;9.028;2022-12-04T11:42:21;26.23;;;12.57;;
3789;SDS011;1910;49.042;9.028;2022-12-04T11:44:50;30.17;;;13.20;;
3789;SDS011;1910;49.042;9.028;2022-12-04T11:47:18;23.30;;;11.85;;
3789;SDS011;1910;49.042;9.028;2022-12-04T11:49:56;23.27;;;11.98;;
3789;SDS011;1910;49.042;9.028;2022-12-04T11:55:22;21.83;;;11.40;;
3789;SDS011;1910;49.042;9.028;2022-12-04T11:58:05;25.13;;;11.80;;
3789;SDS011;1910;49.042;9.028;2022-12-04T12:01:04;19.88;;;11.32;;
3789;SDS011;1910;49.042;9.028;2022-12-04T12:03:37;22.75;;;11.73;;
3789;SDS011;1910;49.042;9.028;2022-12-04T12:06:29;23.85;;;10.85;;
3789;SDS011;1910;49.042;9.028;2022-12-04T12:11:55;27.05;;;11.75;;
3789;SDS011;1910;49.042;9.028;2022-12-04T12:14:42;26.02;;;12.57;;
3789;SDS011;1910;49.042;9.028;2022-12-04T12:20:31;26.25;;;12.55;;
3789;SDS011;1910;49.042;9.028;2022-12-04T12:23:27;23.10;;;11.85;;
3789;SDS011;1910;49.042;9.028;2022-12-04T12:26:16;23.10;;;12.35;;
3789;SDS011;1910;49.042;9.028;2022-12-04T12:34:10;23.75;;;10.82;;
3789;SDS011;1910;49.042;9.028;2022-12-04T12:36:43;27.58;;;12.15;;
3789;SDS011;1910;49.042;9.028;2022-12-04T12:42:24;34.95;;;13.70;;
3789;SDS011;1910;49.042;9.028;2022-12-04T12:45:22;26.77;;;11.88;;
3789;SDS011;1910;49.042;9.028;2022-12-04T12:47:58;34.40;;;14.15;;
3789;SDS011;1910;49.042;9.028;2022-12-04T12:50:37;25.58;;;11.82;;
3789;SDS011;1910;49.042;9.028;2022-12-04T12:53:12;22.30;;;11.35;;
3789;SDS011;1910;49.042;9.028;2022-12-04T12:55:46;24.63;;;12.70;;
3789;SDS011;1910;49.042;9.028;2022-12-04T12:58:18;29.33;;;11.23;;
3789;SDS011;1910;49.042;9.028;2022-12-04T13:00:48;21.02;;;11.48;;
3789;SDS011;1910;49.042;9.028;2022-12-04T13:05:54;28.92;;;15.25;;
3789;SDS011;1910;49.042;9.028;2022-12-04T13:13:42;27.67;;;12.57;;
3789;SDS011;1910;49.042;9.028;2022-12-04T13:16:40;32.17;;;12.27;;
3789;SDS011;1910;49.042;9.028;2022-12-04T13:30:23;40.42;;;12.45;;
3789;SDS011;1910;49.042;9.028;2022-12-04T13:35:40;28.13;;;12.63;;
3789;SDS011;1910;49.042;9.028;2022-12-04T13:41:28;29.40;;;13.88;;
3789;SDS011;1910;49.042;9.028;2022-12-04T13:43:59;34.78;;;14.23;;
3789;SDS011;1910;49.042;9.028;2022-12-04T13:51:46;36.97;;;15.15;;
3789;SDS011;1910;49.042;9.028;2022-12-04T13:56:43;26.93;;;12.47;;
3789;SDS011;1910;49.042;9.028;2022-12-04T14:02:20;32.78;;;15.93;;
3789;SDS011;1910;49.042;9.028;2022-12-04T14:04:52;31.65;;;15.00;;
3789;SDS011;1910;49.042;9.028;2022-12-04T14:07:40;30.92;;;12.68;;
3789;SDS011;1910;49.042;9.028;2022-12-04T14:12:48;35.80;;;15.70;;
3789;SDS011;1910;49.042;9.028;2022-12-04T14:15:22;52.38;;;21.73;;
3789;SDS011;1910;49.042;9.028;2022-12-04T14:17:59;39.10;;;18.33;;
3789;SDS011;1910;49.042;9.028;2022-12-04T14:20:31;32.83;;;15.20;;
3789;SDS011;1910;49.042;9.028;2022-12-04T14:25:43;34.78;;;15.77;;
3789;SDS011;1910;49.042;9.028;2022-12-04T14:34:03;47.42;;;14.38;;
3789;SDS011;1910;49.042;9.028;2022-12-04T14:36:48;41.97;;;16.33;;
3789;SDS011;1910;49.042;9.028;2022-12-04T14:44:38;35.40;;;15.73;;
3789;SDS011;1910;49.042;9.028;2022-12-04T14:47:18;41.75;;;13.63;;
3789;SDS011;1910;49.042;9.028;2022-12-04T14:55:50;42.05;;;16.90;;
3789;SDS011;1910;49.042;9.028;2022-12-04T14:58:31;42.92;;;16.42;;
3789;SDS011;1910;49.042;9.028;2022-12-04T15:01:04;35.85;;;17.08;;
3789;SDS011;1910;49.042;9.028;2022-12-04T15:03:45;37.97;;;15.82;;
3789;SDS011;1910;49.042;9.028;2022-12-04T15:06:34;40.63;;;15.50;;
3789;SDS011;1910;49.042;9.028;2022-12-04T15:09:00;44.40;;;15.75;;
3789;SDS011;1910;49.042;9.028;2022-12-04T15:11:51;37.75;;;16.13;;
3789;SDS011;1910;49.042;9.028;2022-12-04T15:14:38;66.63;;;24.65;;
3789;SDS011;1910;49.042;9.028;2022-12-04T15:17:05;47.30;;;21.48;;
3789;SDS011;1910;49.042;9.028;2022-12-04T15:19:31;54.28;;;20.85;;
3789;SDS011;1910;49.042;9.028;2022-12-04T15:21:57;63.00;;;20.80;;
3789;SDS011;1910;49.042;9.028;2022-12-04T15:24:22;52.43;;;20.17;;
3789;SDS011;1910;49.042;9.028;2022-12-04T15:26:50;57.78;;;19.65;;
3789;SDS011;1910;49.042;9.028;2022-12-04T15:29:21;60.35;;;20.15;;
3789;SDS011;1910;49.042;9.028;2022-12-04T15:31:52;47.28;;;23.20;;
3789;SDS011;1910;49.042;9.028;2022-12-04T15:34:22;42.95;;;19.77;;
3789;SDS011;1910;49.042;9.028;2022-12-04T15:36:57;52.28;;;24.15;;
3789;SDS011;1910;49.042;9.028;2022-12-04T15:39:27;51.83;;;19.95;;
3789;SDS011;1910;49.042;9.028;2022-12-04T15:42:06;68.13;;;21.98;;
3789;SDS011;1910;49.042;9.028;2022-12-04T15:44:38;58.10;;;19.70;;
3789;SDS011;1910;49.042;9.028;2022-12-04T15:47:48;39.60;;;18.48;;
3789;SDS011;1910;49.042;9.028;2022-12-04T15:55:55;52.53;;;17.90;;
3789;SDS011;1910;49.042;9.028;2022-12-04T15:58:35;44.30;;;17.90;;
3789;SDS011;1910;49.042;9.028;2022-12-04T16:01:04;57.10;;;24.38;;
3789;SDS011;1910;49.042;9.028;2022-12-04T16:08:43;44.30;;;17.85;;
3789;SDS011;1910;49.042;9.028;2022-12-04T16:13:44;52.30;;;17.13;;
3789;SDS011;1910;49.042;9.028;2022-12-04T16:16:11;52.40;;;17.77;;
3789;SDS011;1910;49.042;9.028;2022-12-04T16:18:39;47.15;;;16.77;;
3789;SDS011;1910;49.042;9.028;2022-12-04T16:21:08;53.70;;;19.17;;
3789;SDS011;1910;49.042;9.028;2022-12-04T16:23:43;50.13;;;19.23;;
3789;SDS011;1910;49.042;9.028;2022-12-04T16:26:16;53.08;;;20.23;;
3789;SDS011;1910;49.042;9.028;2022-12-04T16:28:43;82.32;;;22.67;;
3789;SDS011;1910;49.042;9.028;2022-12-04T16:31:09;68.57;;;22.07;;
3789;SDS011;1910;49.042;9.028;2022-12-04T16:33:36;58.53;;;19.48;;
3789;SDS011;1910;49.042;9.028;2022-12-04T16:36:02;58.83;;;20.60;;
3789;SDS011;1910;49.042;9.028;2022-12-04T16:38:28;54.17;;;18.75;;
3789;SDS011;1910;49.042;9.028;2022-12-04T16:40:54;53.70;;;18.50;;
3789;SDS011;1910;49.042;9.028;2022-12-04T16:43:20;48.83;;;21.60;;
3789;SDS011;1910;49.042;9.028;2022-12-04T16:45:47;61.90;;;21.83;;
3789;SDS011;1910;49.042;9.028;2022-12-04T16:48:15;51.30;;;19.50;;
3789;SDS011;1910;49.042;9.028;2022-12-04T16:50:42;55.73;;;20.30;;
3789;SDS011;1910;49.042;9.028;2022-12-04T16:53:12;61.50;;;22.25;;
3789;SDS011;1910;49.042;9.028;2022-12-04T16:55:42;63.85;;;21.42;;
3789;SDS011;1910;49.042;9.028;2022-12-04T16:58:09;51.78;;;23.05;;
3789;SDS011;1910;49.042;9.028;2022-12-04T17:00:35;58.93;;;23.47;;
3789;SDS011;1910;49.042;9.028;2022-12-04T17:03:02;67.95;;;19.95;;
3789;SDS011;1910;49.042;9.028;2022-12-04T17:05:28;64.47;;;22.20;;
3789;SDS011;1910;49.042;9.028;2022-12-04T17:07:57;62.35;;;22.83;;
3789;SDS011;1910;49.042;9.028;2022-12-04T17:10:23;64.20;;;20.87;;
3789;SDS011;1910;49.042;9.028;2022-12-04T17:12:50;58.10;;;18.87;;
3789;SDS011;1910;49.042;9.028;2022-12-04T17:15:17;43.15;;;16.42;;
3789;SDS011;1910;49.042;9.028;2022-12-04T17:17:43;61.30;;;23.30;;
3789;SDS011;1910;49.042;9.028;2022-12-04T17:20:13;45.13;;;21.17;;
3789;SDS011;1910;49.042;9.028;2022-12-04T17:22:40;43.55;;;18.48;;
3789;SDS011;1910;49.042;9.028;2022-12-04T17:25:06;45.33;;;19.10;;
3789;SDS011;1910;49.042;9.028;2022-12-04T17:27:32;44.00;;;18.50;;
3789;SDS011;1910;49.042;9.028;2022-12-04T17:29:58;54.75;;;18.23;;
3789;SDS011;1910;49.042;9.028;2022-12-04T17:32:24;42.17;;;18.60;;
3789;SDS011;1910;49.042;9.028;2022-12-04T17:34:51;44.95;;;18.25;;
3789;SDS011;1910;49.042;9.028;2022-12-04T17:37:17;43.40;;;17.75;;
3789;SDS011;1910;49.042;9.028;2022-12-04T17:39:43;44.80;;;18.08;;
3789;SDS011;1910;49.042;9.028;2022-12-04T17:42:09;45.20;;;18.37;;